CheckWX is a tool to help pilots better visualize weather data.  It is not intended as a substitute for an official pre-flight weather briefing.

08:18:52 UTC

KFWS METAR
Fort Worth Spinks Airport
Fort Worth, Texas, USA
Current

24 mins ago

KFWS 220755Z AUTO 12006KT 5SM BR OVC006 08/07 A3001 RMK AO2 T00820071
Observed
Feb-22 @ 07:55 UTC
Wind
  • 120° at 6 KTS
Visibility
5 SM
Flight Rules
IFR
Conditions
Mist
Cloud Levels
  • Overcast at 600' AGL
Temperature
C / 46°F
Dewpoint
C / 45°F
Humidity
93%
Altimeter
30.01" Hg
Pressure
1016.22 hPa
Previous

44 mins ago

KFWS 220735Z AUTO 11009KT 7SM -DZ OVC006 08/07 A2999 RMK AO2 T00820071
Observed
Feb-22 @ 07:35 UTC
Wind
  • 110° at 9 KTS
Visibility
7 SM
Flight Rules
IFR
Conditions
Light Drizzle
Cloud Levels
  • Overcast at 600' AGL
Temperature
C / 46°F
Dewpoint
C / 45°F
Humidity
93%
Altimeter
29.99" Hg
Pressure
1015.62 hPa
Previous

1 hour ago

KFWS 220715Z AUTO 08005KT 7SM OVC006 08/07 A3001 RMK AO2 T00820071
Observed
Feb-22 @ 07:15 UTC
Wind
  • 080° at 5 KTS
Visibility
7 SM
Flight Rules
IFR
Cloud Levels
  • Overcast at 600' AGL
Temperature
C / 46°F
Dewpoint
C / 45°F
Humidity
93%
Altimeter
30.01" Hg
Pressure
1016.22 hPa